DFOO/BOY METAR and TAF weather

Enter ICAO airport designator
Station Type Date Time Source
DFOO METAR 2020/02/20 22:00 UTC NOAA

DFOO 202200Z 36004KT 6000 NSC 29/15 Q1012


Station Type Date Time Source
DFOO Decoded METAR 2020/02/20 22:00 UTC NOAA

Bobo-Dioulasso, Burkina Faso (DFOO) 11-10N 004-19W 460M
Feb 20, 2020 - 05:00 PM EST / 2020.02.20 2200 UTC
Wind: from the N (360 degrees) at 5 MPH (4 KT):0
Visibility: 3 mile(s):0
Temperature: 84 F (29 C)
Dew Point: 59 F (15 C)
Relative Humidity: 42%
Pressure (altimeter): 29.88 in. Hg (1012 hPa)
ob: DFOO 202200Z 36004KT 6000 NSC 29/15 Q1012
cycle: 22

Station Type Date Time Source
DFOO TAF 2020/02/20 18:09 UTC NOAA

TAF DFOO 201700Z 2018/2118 08008KT 8000 NSC
TEMPO 2018/2020 4000 DU
TEMPO 2106/2110 4000 DU

Example: see airport list